sensor_id;sensor_type;location;lat;lon;timestamp;pressure;altitude;pressure_sealevel;temperature;humidity
13612;BME280;6877;51.436;6.774;2023-09-19T00:00:56;100305.53;;;15.16;100.00
13612;BME280;6877;51.436;6.774;2023-09-19T00:03:22;100300.47;;;15.11;100.00
13612;BME280;6877;51.436;6.774;2023-09-19T00:05:49;100303.16;;;15.10;100.00
13612;BME280;6877;51.436;6.774;2023-09-19T00:08:16;100306.72;;;15.09;100.00
13612;BME280;6877;51.436;6.774;2023-09-19T00:10:43;100306.72;;;15.09;100.00
13612;BME280;6877;51.436;6.774;2023-09-19T00:13:14;100308.81;;;15.00;100.00
13612;BME280;6877;51.436;6.774;2023-09-19T00:15:47;100303.78;;;14.96;100.00
13612;BME280;6877;51.436;6.774;2023-09-19T00:18:19;100315.28;;;14.93;100.00
13612;BME280;6877;51.436;6.774;2023-09-19T00:20:47;100308.31;;;14.92;100.00
13612;BME280;6877;51.436;6.774;2023-09-19T00:23:15;100302.25;;;14.90;100.00
13612;BME280;6877;51.436;6.774;2023-09-19T00:25:42;100310.16;;;14.90;100.00
13612;BME280;6877;51.436;6.774;2023-09-19T00:28:13;100310.25;;;14.89;100.00
13612;BME280;6877;51.436;6.774;2023-09-19T00:30:47;100320.06;;;14.85;100.00
13612;BME280;6877;51.436;6.774;2023-09-19T00:33:22;100322.81;;;14.82;100.00
13612;BME280;6877;51.436;6.774;2023-09-19T00:35:52;100324.78;;;14.77;100.00
13612;BME280;6877;51.436;6.774;2023-09-19T00:38:24;100316.09;;;14.75;100.00
13612;BME280;6877;51.436;6.774;2023-09-19T00:40:58;100316.41;;;14.67;100.00
13612;BME280;6877;51.436;6.774;2023-09-19T00:43:32;100322.78;;;14.62;100.00
13612;BME280;6877;51.436;6.774;2023-09-19T00:46:01;100327.41;;;14.56;100.00
13612;BME280;6877;51.436;6.774;2023-09-19T00:48:30;100324.91;;;14.53;100.00
13612;BME280;6877;51.436;6.774;2023-09-19T00:50:59;100324.09;;;14.51;100.00
13612;BME280;6877;51.436;6.774;2023-09-19T00:53:30;100334.72;;;14.48;100.00
13612;BME280;6877;51.436;6.774;2023-09-19T00:56:03;100340.94;;;14.47;100.00
13612;BME280;6877;51.436;6.774;2023-09-19T00:58:38;100348.94;;;14.44;100.00
13612;BME280;6877;51.436;6.774;2023-09-19T01:01:05;100349.97;;;14.40;100.00
13612;BME280;6877;51.436;6.774;2023-09-19T01:03:38;100347.47;;;14.37;100.00
13612;BME280;6877;51.436;6.774;2023-09-19T01:06:05;100337.88;;;14.36;100.00
13612;BME280;6877;51.436;6.774;2023-09-19T01:08:31;100344.06;;;14.35;100.00
13612;BME280;6877;51.436;6.774;2023-09-19T01:11:14;100348.41;;;14.36;100.00
13612;BME280;6877;51.436;6.774;2023-09-19T01:17:03;100359.06;;;14.33;100.00
13612;BME280;6877;51.436;6.774;2023-09-19T01:28:53;100366.81;;;14.36;100.00
13612;BME280;6877;51.436;6.774;2023-09-19T01:30:58;100363.34;;;14.35;100.00
13612;BME280;6877;51.436;6.774;2023-09-19T01:33:58;100376.50;;;14.35;100.00
13612;BME280;6877;51.436;6.774;2023-09-19T01:36:36;100374.00;;;14.32;100.00
13612;BME280;6877;51.436;6.774;2023-09-19T01:39:10;100384.41;;;14.35;100.00
13612;BME280;6877;51.436;6.774;2023-09-19T01:47:52;100382.06;;;14.28;100.00
13612;BME280;6877;51.436;6.774;2023-09-19T01:53:38;100389.28;;;14.23;100.00
13612;BME280;6877;51.436;6.774;2023-09-19T01:56:08;100384.03;;;14.23;100.00
13612;BME280;6877;51.436;6.774;2023-09-19T01:58:46;100391.00;;;14.24;100.00
13612;BME280;6877;51.436;6.774;2023-09-19T02:01:20;100387.44;;;14.25;100.00
13612;BME280;6877;51.436;6.774;2023-09-19T02:03:48;100384.03;;;14.23;100.00
13612;BME280;6877;51.436;6.774;2023-09-19T02:06:17;100398.09;;;14.22;100.00
13612;BME280;6877;51.436;6.774;2023-09-19T02:08:50;100399.81;;;14.23;100.00
13612;BME280;6877;51.436;6.774;2023-09-19T02:11:16;100396.38;;;14.21;100.00
13612;BME280;6877;51.436;6.774;2023-09-19T02:13:43;100402.50;;;14.21;100.00
13612;BME280;6877;51.436;6.774;2023-09-19T02:16:16;100406.91;;;14.21;100.00
13612;BME280;6877;51.436;6.774;2023-09-19T02:18:43;100409.50;;;14.22;100.00
13612;BME280;6877;51.436;6.774;2023-09-19T02:21:14;100405.19;;;14.20;100.00
13612;BME280;6877;51.436;6.774;2023-09-19T02:23:41;100412.25;;;14.19;100.00
13612;BME280;6877;51.436;6.774;2023-09-19T02:26:13;100413.09;;;14.20;100.00
13612;BME280;6877;51.436;6.774;2023-09-19T02:28:40;100413.13;;;14.18;100.00
13612;BME280;6877;51.436;6.774;2023-09-19T02:31:08;100414.16;;;14.16;100.00
13612;BME280;6877;51.436;6.774;2023-09-19T02:33:34;100419.53;;;14.12;100.00
13612;BME280;6877;51.436;6.774;2023-09-19T02:36:07;100416.00;;;14.12;100.00
13612;BME280;6877;51.436;6.774;2023-09-19T02:38:33;100419.53;;;14.12;100.00
13612;BME280;6877;51.436;6.774;2023-09-19T02:41:00;100418.63;;;14.12;100.00
13612;BME280;6877;51.436;6.774;2023-09-19T02:43:27;100417.78;;;14.11;100.00
13612;BME280;6877;51.436;6.774;2023-09-19T02:45:59;100426.59;;;14.10;100.00
13612;BME280;6877;51.436;6.774;2023-09-19T02:48:25;100424.91;;;14.09;100.00
13612;BME280;6877;51.436;6.774;2023-09-19T02:50:52;100432.00;;;14.07;100.00
13612;BME280;6877;51.436;6.774;2023-09-19T02:53:19;100434.53;;;14.09;100.00
13612;BME280;6877;51.436;6.774;2023-09-19T02:55:46;100440.81;;;14.06;100.00
13612;BME280;6877;51.436;6.774;2023-09-19T02:58:18;100442.66;;;14.03;100.00
13612;BME280;6877;51.436;6.774;2023-09-19T03:00:44;100441.88;;;14.01;100.00
13612;BME280;6877;51.436;6.774;2023-09-19T03:03:17;100444.63;;;13.98;100.00
13612;BME280;6877;51.436;6.774;2023-09-19T03:05:44;100446.41;;;13.97;100.00
13612;BME280;6877;51.436;6.774;2023-09-19T03:08:14;100448.13;;;13.98;100.00
13612;BME280;6877;51.436;6.774;2023-09-19T03:10:47;100446.44;;;13.96;100.00
13612;BME280;6877;51.436;6.774;2023-09-19T03:13:17;100442.97;;;13.95;100.00
13612;BME280;6877;51.436;6.774;2023-09-19T03:15:43;100446.53;;;13.94;100.00
13612;BME280;6877;51.436;6.774;2023-09-19T03:18:12;100449.16;;;13.94;100.00
13612;BME280;6877;51.436;6.774;2023-09-19T03:20:58;100442.84;;;13.98;100.00
13612;BME280;6877;51.436;6.774;2023-09-19T03:23:32;100440.34;;;13.95;100.00
13612;BME280;6877;51.436;6.774;2023-09-19T03:25:59;100441.38;;;13.91;100.00
13612;BME280;6877;51.436;6.774;2023-09-19T03:28:33;100449.41;;;13.86;100.00
13612;BME280;6877;51.436;6.774;2023-09-19T03:31:05;100453.09;;;13.82;100.00
13612;BME280;6877;51.436;6.774;2023-09-19T03:33:37;100456.75;;;13.78;100.00
13612;BME280;6877;51.436;6.774;2023-09-19T03:36:09;100450.88;;;13.72;100.00
13612;BME280;6877;51.436;6.774;2023-09-19T03:38:35;100456.13;;;13.72;100.00
13612;BME280;6877;51.436;6.774;2023-09-19T03:41:02;100454.38;;;13.71;100.00
13612;BME280;6877;51.436;6.774;2023-09-19T03:43:29;100456.22;;;13.68;100.00
13612;BME280;6877;51.436;6.774;2023-09-19T03:45:55;100453.72;;;13.65;100.00
13612;BME280;6877;51.436;6.774;2023-09-19T03:48:27;100448.50;;;13.64;100.00
13612;BME280;6877;51.436;6.774;2023-09-19T03:50:53;100453.81;;;13.62;100.00
13612;BME280;6877;51.436;6.774;2023-09-19T03:53:22;100459.06;;;13.62;100.00
13612;BME280;6877;51.436;6.774;2023-09-19T03:55:54;100454.78;;;13.60;100.00
13612;BME280;6877;51.436;6.774;2023-09-19T03:58:21;100452.16;;;13.60;100.00
13612;BME280;6877;51.436;6.774;2023-09-19T04:00:56;100449.44;;;13.61;100.00
13612;BME280;6877;51.436;6.774;2023-09-19T04:03:23;100445.06;;;13.62;100.00
13612;BME280;6877;51.436;6.774;2023-09-19T04:05:51;100448.66;;;13.59;100.00
13612;BME280;6877;51.436;6.774;2023-09-19T04:08:17;100449.56;;;13.58;100.00
13612;BME280;6877;51.436;6.774;2023-09-19T04:10:44;100446.03;;;13.59;100.00
13612;BME280;6877;51.436;6.774;2023-09-19T04:13:11;100453.97;;;13.58;100.00
13612;BME280;6877;51.436;6.774;2023-09-19T04:15:43;100446.81;;;13.61;100.00
13612;BME280;6877;51.436;6.774;2023-09-19T04:18:14;100442.38;;;13.63;100.00
13612;BME280;6877;51.436;6.774;2023-09-19T04:20:41;100445.00;;;13.63;100.00
13612;BME280;6877;51.436;6.774;2023-09-19T04:23:07;100451.28;;;13.59;100.00
13612;BME280;6877;51.436;6.774;2023-09-19T04:25:40;100451.34;;;13.58;100.00
13612;BME280;6877;51.436;6.774;2023-09-19T04:28:12;100452.28;;;13.55;100.00
13612;BME280;6877;51.436;6.774;2023-09-19T04:30:38;100455.03;;;13.52;100.00
13612;BME280;6877;51.436;6.774;2023-09-19T04:33:07;100457.72;;;13.51;100.00
13612;BME280;6877;51.436;6.774;2023-09-19T04:35:39;100450.69;;;13.51;100.00
13612;BME280;6877;51.436;6.774;2023-09-19T04:38:08;100443.66;;;13.52;100.00
13612;BME280;6877;51.436;6.774;2023-09-19T04:40:35;100455.91;;;13.53;100.00
13612;BME280;6877;51.436;6.774;2023-09-19T04:43:06;100455.91;;;13.53;100.00
13612;BME280;6877;51.436;6.774;2023-09-19T04:45:33;100461.19;;;13.53;100.00
13612;BME280;6877;51.436;6.774;2023-09-19T04:48:05;100458.59;;;13.51;100.00
13612;BME280;6877;51.436;6.774;2023-09-19T04:50:40;100463.03;;;13.49;100.00
13612;BME280;6877;51.436;6.774;2023-09-19T04:53:06;100458.66;;;13.50;100.00
13612;BME280;6877;51.436;6.774;2023-09-19T04:55:33;100465.56;;;13.52;100.00
13612;BME280;6877;51.436;6.774;2023-09-19T04:57:59;100468.19;;;13.52;100.00
13612;BME280;6877;51.436;6.774;2023-09-19T05:00:26;100474.31;;;13.53;100.00
13612;BME280;6877;51.436;6.774;2023-09-19T05:03:00;100478.66;;;13.54;100.00
13612;BME280;6877;51.436;6.774;2023-09-19T05:05:32;100495.28;;;13.54;100.00
13612;BME280;6877;51.436;6.774;2023-09-19T05:07:59;100502.31;;;13.54;100.00
13612;BME280;6877;51.436;6.774;2023-09-19T05:10:32;100495.28;;;13.54;100.00
13612;BME280;6877;51.436;6.774;2023-09-19T05:12:58;100503.16;;;13.54;100.00
13612;BME280;6877;51.436;6.774;2023-09-19T05:15:25;100510.22;;;13.54;100.00
13612;BME280;6877;51.436;6.774;2023-09-19T05:17:54;100518.94;;;13.54;100.00
13612;BME280;6877;51.436;6.774;2023-09-19T05:20:22;100518.03;;;13.55;100.00
13612;BME280;6877;51.436;6.774;2023-09-19T05:23:05;100528.53;;;13.55;100.00
13612;BME280;6877;51.436;6.774;2023-09-19T05:25:36;100527.66;;;13.56;100.00
13612;BME280;6877;51.436;6.774;2023-09-19T05:28:07;100533.69;;;13.58;100.00
13612;BME280;6877;51.436;6.774;2023-09-19T05:30:34;100525.69;;;13.61;100.00
13612;BME280;6877;51.436;6.774;2023-09-19T05:33:02;100534.09;;;13.73;100.00
13612;BME280;6877;51.436;6.774;2023-09-19T05:35:37;100544.28;;;13.82;100.00
13612;BME280;6877;51.436;6.774;2023-09-19T05:38:10;100541.38;;;13.89;100.00
13612;BME280;6877;51.436;6.774;2023-09-19T05:40:45;100550.72;;;13.98;100.00
13612;BME280;6877;51.436;6.774;2023-09-19T05:43:16;100549.47;;;14.08;100.00
13612;BME280;6877;51.436;6.774;2023-09-19T05:45:43;100549.25;;;14.14;100.00
13612;BME280;6877;51.436;6.774;2023-09-19T05:48:16;100541.97;;;14.21;100.00
13612;BME280;6877;51.436;6.774;2023-09-19T05:50:43;100553.22;;;14.26;100.00
13612;BME280;6877;51.436;6.774;2023-09-19T05:53:13;100551.31;;;14.30;100.00
13612;BME280;6877;51.436;6.774;2023-09-19T05:55:41;100558.94;;;14.37;100.00
13612;BME280;6877;51.436;6.774;2023-09-19T05:58:13;100552.56;;;14.43;100.00
13612;BME280;6877;51.436;6.774;2023-09-19T06:00:43;100548.84;;;14.49;100.00
13612;BME280;6877;51.436;6.774;2023-09-19T06:03:15;100554.00;;;14.53;99.84
13612;BME280;6877;51.436;6.774;2023-09-19T06:05:43;100560.00;;;14.57;98.83
13612;BME280;6877;51.436;6.774;2023-09-19T06:08:10;100553.72;;;14.59;98.65
13612;BME280;6877;51.436;6.774;2023-09-19T06:10:36;100549.25;;;14.63;98.02
13612;BME280;6877;51.436;6.774;2023-09-19T06:13:03;100552.72;;;14.64;98.64
13612;BME280;6877;51.436;6.774;2023-09-19T06:15:37;100548.06;;;14.70;98.27
13612;BME280;6877;51.436;6.774;2023-09-19T06:18:04;100543.53;;;14.74;97.60
13612;BME280;6877;51.436;6.774;2023-09-19T06:20:31;100553.97;;;14.77;97.13
13612;BME280;6877;51.436;6.774;2023-09-19T06:23:02;100556.47;;;14.80;96.82
13612;BME280;6877;51.436;6.774;2023-09-19T06:25:29;100552.06;;;14.80;96.81
13612;BME280;6877;51.436;6.774;2023-09-19T06:27:55;100548.31;;;14.86;96.88
13612;BME280;6877;51.436;6.774;2023-09-19T06:30:23;100543.06;;;14.86;96.45
13612;BME280;6877;51.436;6.774;2023-09-19T06:32:58;100541.13;;;14.91;96.68
13612;BME280;6877;51.436;6.774;2023-09-19T06:35:35;100545.47;;;14.92;95.78
13612;BME280;6877;51.436;6.774;2023-09-19T06:38:04;100543.47;;;14.97;95.80
13612;BME280;6877;51.436;6.774;2023-09-19T06:40:33;100553.91;;;15.00;95.61
13612;BME280;6877;51.436;6.774;2023-09-19T06:43:00;100558.03;;;15.07;95.90
13612;BME280;6877;51.436;6.774;2023-09-19T06:45:33;100555.19;;;15.12;95.34
13612;BME280;6877;51.436;6.774;2023-09-19T06:47:59;100566.34;;;15.19;95.24
13612;BME280;6877;51.436;6.774;2023-09-19T06:50:26;100570.50;;;15.24;95.22
13612;BME280;6877;51.436;6.774;2023-09-19T06:52:58;100563.19;;;15.31;95.15
13612;BME280;6877;51.436;6.774;2023-09-19T06:55:26;100563.88;;;15.36;94.80
13612;BME280;6877;51.436;6.774;2023-09-19T06:58:03;100569.81;;;15.41;94.74
13612;BME280;6877;51.436;6.774;2023-09-19T07:00:37;100577.53;;;15.46;94.99
13612;BME280;6877;51.436;6.774;2023-09-19T07:03:08;100578.94;;;15.55;95.05
13612;BME280;6877;51.436;6.774;2023-09-19T07:05:42;100572.47;;;15.62;95.19
13612;BME280;6877;51.436;6.774;2023-09-19T07:08:14;100583.63;;;15.70;94.25
13612;BME280;6877;51.436;6.774;2023-09-19T07:10:42;100576.56;;;15.70;93.82
13612;BME280;6877;51.436;6.774;2023-09-19T07:13:15;100581.50;;;15.78;94.50
13612;BME280;6877;51.436;6.774;2023-09-19T07:15:48;100583.19;;;15.79;93.87
13612;BME280;6877;51.436;6.774;2023-09-19T07:18:21;100589.09;;;15.86;94.11
13612;BME280;6877;51.436;6.774;2023-09-19T07:20:47;100588.75;;;15.93;93.97
13612;BME280;6877;51.436;6.774;2023-09-19T07:23:20;100590.91;;;16.04;93.39
13612;BME280;6877;51.436;6.774;2023-09-19T07:25:48;100593.38;;;16.09;92.59
13612;BME280;6877;51.436;6.774;2023-09-19T07:28:20;100595.59;;;16.18;91.97
13612;BME280;6877;51.436;6.774;2023-09-19T07:30:51;100592.56;;;16.27;92.00
13612;BME280;6877;51.436;6.774;2023-09-19T07:33:18;100586.78;;;16.38;91.10
13612;BME280;6877;51.436;6.774;2023-09-19T07:35:46;100594.66;;;16.39;90.49
13612;BME280;6877;51.436;6.774;2023-09-19T07:38:18;100603.91;;;16.48;89.88
13612;BME280;6877;51.436;6.774;2023-09-19T07:40:49;100595.09;;;16.68;89.50
13612;BME280;6877;51.436;6.774;2023-09-19T07:43:16;100594.31;;;16.66;88.00
13612;BME280;6877;51.436;6.774;2023-09-19T07:45:49;100600.25;;;16.71;88.51
13612;BME280;6877;51.436;6.774;2023-09-19T07:48:15;100601.41;;;16.84;87.68
13612;BME280;6877;51.436;6.774;2023-09-19T07:50:47;100602.69;;;16.95;87.20
13612;BME280;6877;51.436;6.774;2023-09-19T07:53:19;100598.53;;;17.08;85.85
13612;BME280;6877;51.436;6.774;2023-09-19T07:55:50;100606.50;;;17.25;84.76
13612;BME280;6877;51.436;6.774;2023-09-19T07:58:18;100605.78;;;17.58;84.62
13612;BME280;6877;51.436;6.774;2023-09-19T08:00:44;100610.00;;;17.97;80.86
13612;BME280;6877;51.436;6.774;2023-09-19T08:03:12;100620.34;;;18.19;79.99
13612;BME280;6877;51.436;6.774;2023-09-19T08:05:46;100617.75;;;18.68;77.36
13612;BME280;6877;51.436;6.774;2023-09-19T08:08:18;100615.00;;;18.69;76.16
13612;BME280;6877;51.436;6.774;2023-09-19T08:10:44;100616.16;;;18.81;75.23
13612;BME280;6877;51.436;6.774;2023-09-19T08:13:12;100628.50;;;19.14;73.78
13612;BME280;6877;51.436;6.774;2023-09-19T08:15:45;100624.41;;;19.54;73.21
13612;BME280;6877;51.436;6.774;2023-09-19T08:18:12;100623.38;;;20.03;69.95
13612;BME280;6877;51.436;6.774;2023-09-19T08:20:49;100629.16;;;20.24;68.39
13612;BME280;6877;51.436;6.774;2023-09-19T08:23:15;100635.19;;;20.27;66.31
13612;BME280;6877;51.436;6.774;2023-09-19T08:25:44;100626.09;;;19.87;67.45
13612;BME280;6877;51.436;6.774;2023-09-19T08:28:16;100637.47;;;19.43;69.55
13612;BME280;6877;51.436;6.774;2023-09-19T08:30:50;100633.28;;;19.07;70.32
13612;BME280;6877;51.436;6.774;2023-09-19T08:33:17;100644.03;;;18.72;72.26
13612;BME280;6877;51.436;6.774;2023-09-19T08:35:48;100643.88;;;18.58;72.85
13612;BME280;6877;51.436;6.774;2023-09-19T08:38:15;100636.63;;;18.95;72.57
13612;BME280;6877;51.436;6.774;2023-09-19T08:40:47;100653.72;;;20.43;67.44
13612;BME280;6877;51.436;6.774;2023-09-19T08:43:21;100655.97;;;22.28;60.03
13612;BME280;6877;51.436;6.774;2023-09-19T08:45:47;100647.88;;;23.89;53.60
13612;BME280;6877;51.436;6.774;2023-09-19T08:48:29;100672.94;;;24.35;49.94
13612;BME280;6877;51.436;6.774;2023-09-19T08:51:06;100665.94;;;24.67;49.36
13612;BME280;6877;51.436;6.774;2023-09-19T08:56:28;100663.97;;;24.92;46.61
13612;BME280;6877;51.436;6.774;2023-09-19T08:58:59;100646.94;;;24.01;49.05
13612;BME280;6877;51.436;6.774;2023-09-19T09:01:33;100648.31;;;24.07;49.08
13612;BME280;6877;51.436;6.774;2023-09-19T09:04:08;100660.28;;;24.25;48.51
13612;BME280;6877;51.436;6.774;2023-09-19T09:06:35;100658.81;;;24.21;48.99
13612;BME280;6877;51.436;6.774;2023-09-19T09:09:02;100650.81;;;23.62;50.45
13612;BME280;6877;51.436;6.774;2023-09-19T09:11:32;100645.34;;;23.88;50.03
13612;BME280;6877;51.436;6.774;2023-09-19T09:13:59;100653.53;;;24.66;48.71
13612;BME280;6877;51.436;6.774;2023-09-19T09:16:31;100649.84;;;25.35;45.57
13612;BME280;6877;51.436;6.774;2023-09-19T09:18:57;100654.75;;;24.51;45.62
13612;BME280;6877;51.436;6.774;2023-09-19T09:21:25;100647.94;;;24.47;46.94
13612;BME280;6877;51.436;6.774;2023-09-19T09:23:52;100643.22;;;25.71;44.11
13612;BME280;6877;51.436;6.774;2023-09-19T09:29:08;100651.78;;;25.97;42.13
13612;BME280;6877;51.436;6.774;2023-09-19T09:31:35;100651.25;;;26.03;41.98
13612;BME280;6877;51.436;6.774;2023-09-19T09:34:01;100642.59;;;25.47;42.67
13612;BME280;6877;51.436;6.774;2023-09-19T09:36:38;100649.16;;;25.54;43.14
13612;BME280;6877;51.436;6.774;2023-09-19T09:39:06;100652.88;;;25.62;42.08
13612;BME280;6877;51.436;6.774;2023-09-19T09:41:50;100653.53;;;25.87;42.07
13612;BME280;6877;51.436;6.774;2023-09-19T09:44:17;100653.78;;;26.26;41.19
13612;BME280;6877;51.436;6.774;2023-09-19T09:46:46;100649.91;;;26.91;40.22
13612;BME280;6877;51.436;6.774;2023-09-19T09:49:23;100658.72;;;26.21;41.48
13612;BME280;6877;51.436;6.774;2023-09-19T09:52:05;100650.75;;;25.45;42.58
13612;BME280;6877;51.436;6.774;2023-09-19T09:55:02;100635.22;;;25.28;43.81
13612;BME280;6877;51.436;6.774;2023-09-19T09:57:31;100642.66;;;24.34;44.41
13612;BME280;6877;51.436;6.774;2023-09-19T10:00:03;100638.31;;;24.44;45.30
13612;BME280;6877;51.436;6.774;2023-09-19T10:02:44;100646.38;;;25.76;43.23
13612;BME280;6877;51.436;6.774;2023-09-19T10:05:20;100650.34;;;27.56;38.99
13612;BME280;6877;51.436;6.774;2023-09-19T10:07:51;100650.22;;;28.06;37.33
13612;BME280;6877;51.436;6.774;2023-09-19T10:10:30;100647.78;;;27.55;37.31
13612;BME280;6877;51.436;6.774;2023-09-19T10:13:06;100641.72;;;27.72;37.44
13612;BME280;6877;51.436;6.774;2023-09-19T10:15:39;100643.78;;;28.74;35.32
13612;BME280;6877;51.436;6.774;2023-09-19T10:18:10;100645.09;;;27.74;36.48
13612;BME280;6877;51.436;6.774;2023-09-19T10:20:37;100635.78;;;27.59;36.37
13612;BME280;6877;51.436;6.774;2023-09-19T10:23:10;100627.97;;;28.61;35.17
13612;BME280;6877;51.436;6.774;2023-09-19T10:25:43;100640.94;;;29.30;33.82
13612;BME280;6877;51.436;6.774;2023-09-19T10:28:14;100624.38;;;29.25;32.50
13612;BME280;6877;51.436;6.774;2023-09-19T10:30:47;100625.97;;;28.91;33.31
13612;BME280;6877;51.436;6.774;2023-09-19T10:33:24;100616.44;;;28.78;33.81
13612;BME280;6877;51.436;6.774;2023-09-19T10:36:00;100635.38;;;28.49;33.98
13612;BME280;6877;51.436;6.774;2023-09-19T10:38:30;100628.03;;;28.51;33.66
13612;BME280;6877;51.436;6.774;2023-09-19T10:40:59;100621.53;;;28.72;33.06
13612;BME280;6877;51.436;6.774;2023-09-19T10:43:32;100620.22;;;27.53;34.89
13612;BME280;6877;51.436;6.774;2023-09-19T10:46:07;100616.47;;;27.05;35.72
13612;BME280;6877;51.436;6.774;2023-09-19T10:48:33;100618.59;;;28.18;34.56
13612;BME280;6877;51.436;6.774;2023-09-19T10:56:10;100614.88;;;26.52;36.23
13612;BME280;6877;51.436;6.774;2023-09-19T10:58:48;100612.88;;;26.54;36.95
13612;BME280;6877;51.436;6.774;2023-09-19T11:01:15;100617.06;;;27.18;36.19
13612;BME280;6877;51.436;6.774;2023-09-19T11:04:21;100619.59;;;26.39;37.11
13612;BME280;6877;51.436;6.774;2023-09-19T11:07:09;100609.66;;;25.88;38.82
13612;BME280;6877;51.436;6.774;2023-09-19T11:14:52;100615.03;;;24.22;42.36
13612;BME280;6877;51.436;6.774;2023-09-19T11:17:30;100610.22;;;24.27;41.26
13612;BME280;6877;51.436;6.774;2023-09-19T11:30:41;100614.47;;;22.11;46.96
13612;BME280;6877;51.436;6.774;2023-09-19T11:33:28;100600.38;;;21.43;48.78
13612;BME280;6877;51.436;6.774;2023-09-19T11:36:11;100601.03;;;21.47;49.84
13612;BME280;6877;51.436;6.774;2023-09-19T11:43:49;100593.69;;;21.50;48.78
13612;BME280;6877;51.436;6.774;2023-09-19T11:46:21;100585.28;;;21.44;48.46
13612;BME280;6877;51.436;6.774;2023-09-19T11:48:49;100591.25;;;21.33;48.42
13612;BME280;6877;51.436;6.774;2023-09-19T11:51:23;100591.16;;;21.35;48.10
13612;BME280;6877;51.436;6.774;2023-09-19T11:53:58;100581.81;;;21.15;49.15
13612;BME280;6877;51.436;6.774;2023-09-19T11:56:38;100576.44;;;21.29;49.09
13612;BME280;6877;51.436;6.774;2023-09-19T11:59:07;100574.41;;;21.20;49.27
13612;BME280;6877;51.436;6.774;2023-09-19T12:01:43;100574.03;;;21.12;49.38
13612;BME280;6877;51.436;6.774;2023-09-19T12:04:18;100569.47;;;21.14;49.29
13612;BME280;6877;51.436;6.774;2023-09-19T12:06:56;100573.44;;;21.21;49.04
13612;BME280;6877;51.436;6.774;2023-09-19T12:09:23;100574.06;;;21.24;48.77
13612;BME280;6877;51.436;6.774;2023-09-19T12:11:51;100567.97;;;21.10;48.69
13612;BME280;6877;51.436;6.774;2023-09-19T12:14:23;100563.78;;;21.05;49.16
13612;BME280;6877;51.436;6.774;2023-09-19T12:16:57;100566.31;;;20.94;48.97
13612;BME280;6877;51.436;6.774;2023-09-19T12:19:25;100561.28;;;20.90;49.54
13612;BME280;6877;51.436;6.774;2023-09-19T12:22:03;100571.88;;;20.63;49.04
13612;BME280;6877;51.436;6.774;2023-09-19T12:24:35;100554.63;;;20.55;49.75
13612;BME280;6877;51.436;6.774;2023-09-19T12:27:05;100561.34;;;20.61;49.13
13612;BME280;6877;51.436;6.774;2023-09-19T12:29:47;100551.72;;;20.73;48.75
13612;BME280;6877;51.436;6.774;2023-09-19T12:32:34;100546.19;;;20.90;48.76
13612;BME280;6877;51.436;6.774;2023-09-19T12:35:01;100538.09;;;20.92;48.63
13612;BME280;6877;51.436;6.774;2023-09-19T12:37:33;100535.22;;;20.95;48.85
13612;BME280;6877;51.436;6.774;2023-09-19T12:40:06;100541.00;;;21.01;48.34
13612;BME280;6877;51.436;6.774;2023-09-19T12:42:49;100540.25;;;20.99;48.48
13612;BME280;6877;51.436;6.774;2023-09-19T12:45:16;100540.19;;;21.14;48.39
13612;BME280;6877;51.436;6.774;2023-09-19T12:51:08;100550.19;;;21.10;48.01
13612;BME280;6877;51.436;6.774;2023-09-19T12:53:44;100525.25;;;20.98;47.75
13612;BME280;6877;51.436;6.774;2023-09-19T12:56:18;100527.13;;;20.96;47.80
13612;BME280;6877;51.436;6.774;2023-09-19T13:01:23;100532.06;;;21.02;47.99
13612;BME280;6877;51.436;6.774;2023-09-19T13:06:38;100529.47;;;20.88;49.30
13612;BME280;6877;51.436;6.774;2023-09-19T13:09:14;100532.88;;;20.90;49.34
13612;BME280;6877;51.436;6.774;2023-09-19T13:11:42;100534.59;;;20.91;49.68
13612;BME280;6877;51.436;6.774;2023-09-19T13:14:20;100535.22;;;20.95;49.89
13612;BME280;6877;51.436;6.774;2023-09-19T13:17:05;100537.50;;;21.01;49.60
13612;BME280;6877;51.436;6.774;2023-09-19T13:19:49;100544.84;;;20.97;50.11
13612;BME280;6877;51.436;6.774;2023-09-19T13:22:38;100535.03;;;20.98;49.78
13612;BME280;6877;51.436;6.774;2023-09-19T13:25:10;100535.63;;;20.89;50.20
13612;BME280;6877;51.436;6.774;2023-09-19T13:27:49;100543.44;;;20.77;50.74
13612;BME280;6877;51.436;6.774;2023-09-19T13:30:28;100538.59;;;20.84;50.96
13612;BME280;6877;51.436;6.774;2023-09-19T13:33:11;100537.63;;;20.85;50.67
13612;BME280;6877;51.436;6.774;2023-09-19T13:35:45;100537.06;;;20.80;50.77
13612;BME280;6877;51.436;6.774;2023-09-19T13:38:12;100541.00;;;20.74;50.80
13612;BME280;6877;51.436;6.774;2023-09-19T13:40:39;100540.31;;;20.71;51.29
13612;BME280;6877;51.436;6.774;2023-09-19T13:43:08;100540.19;;;20.59;51.60
13612;BME280;6877;51.436;6.774;2023-09-19T13:45:40;100532.16;;;20.45;52.56
13612;BME280;6877;51.436;6.774;2023-09-19T13:48:15;100525.53;;;20.38;52.75
13612;BME280;6877;51.436;6.774;2023-09-19T13:50:46;100535.22;;;20.39;53.05
13612;BME280;6877;51.436;6.774;2023-09-19T13:53:18;100532.09;;;20.47;53.13
13612;BME280;6877;51.436;6.774;2023-09-19T13:55:45;100527.69;;;20.46;53.43
13612;BME280;6877;51.436;6.774;2023-09-19T13:58:12;100526.50;;;20.37;53.29
13612;BME280;6877;51.436;6.774;2023-09-19T14:00:44;100538.44;;;20.30;53.69
13612;BME280;6877;51.436;6.774;2023-09-19T14:03:15;100538.56;;;20.28;53.65
13612;BME280;6877;51.436;6.774;2023-09-19T14:05:42;100531.25;;;20.32;53.80
13612;BME280;6877;51.436;6.774;2023-09-19T14:08:13;100539.78;;;20.37;53.83
13612;BME280;6877;51.436;6.774;2023-09-19T14:10:45;100528.31;;;20.36;53.85
13612;BME280;6877;51.436;6.774;2023-09-19T14:13:11;100531.81;;;20.37;54.13
13612;BME280;6877;51.436;6.774;2023-09-19T14:15:46;100529.94;;;20.25;54.24
13612;BME280;6877;51.436;6.774;2023-09-19T14:18:13;100548.13;;;20.17;54.60